createdAt,value
2023-01-06T00:04:36.037Z,11.90
2023-01-06T00:09:38.655Z,11.90
2023-01-06T00:14:43.072Z,11.90
2023-01-06T00:19:45.104Z,11.90
2023-01-06T00:24:47.099Z,11.90
2023-01-06T00:29:50.989Z,11.90
2023-01-06T00:34:53.031Z,12.00
2023-01-06T00:39:55.223Z,12.00
2023-01-06T00:44:57.336Z,12.00
2023-01-06T00:49:59.365Z,12.00
2023-01-06T00:55:01.489Z,12.00
2023-01-06T01:00:03.809Z,12.00
2023-01-06T01:05:06.108Z,11.90
2023-01-06T01:10:09.106Z,11.90
2023-01-06T01:15:11.670Z,11.90
2023-01-06T01:20:13.757Z,11.80
2023-01-06T01:25:15.966Z,11.80
2023-01-06T01:30:21.165Z,11.80
2023-01-06T01:35:23.836Z,11.80
2023-01-06T01:40:26.042Z,11.80
2023-01-06T01:45:29.848Z,11.80
2023-01-06T01:50:46.320Z,11.80
2023-01-06T01:55:50.715Z,11.80
2023-01-06T02:00:53.117Z,11.80
2023-01-06T02:05:59.384Z,11.80
2023-01-06T02:11:02.107Z,11.80
2023-01-06T02:16:35.947Z,11.80
2023-01-06T02:21:53.029Z,11.80
2023-01-06T02:26:55.177Z,11.80
2023-01-06T02:32:21.776Z,11.80
2023-01-06T02:37:57.720Z,11.80
2023-01-06T02:43:25.707Z,11.80
2023-01-06T02:48:50.604Z,11.80
2023-01-06T02:54:15.552Z,11.90
2023-01-06T02:59:26.817Z,11.80
2023-01-06T03:04:37.646Z,11.90
2023-01-06T03:09:41.034Z,11.80
2023-01-06T03:14:51.405Z,11.80
2023-01-06T03:19:53.955Z,11.80
2023-01-06T03:24:56.922Z,11.80
2023-01-06T03:30:02.298Z,11.90
2023-01-06T03:35:19.339Z,11.90
2023-01-06T03:40:21.564Z,11.90
2023-01-06T03:45:44.816Z,11.90
2023-01-06T03:51:20.177Z,11.90
2023-01-06T03:56:34.149Z,11.90
2023-01-06T04:01:43.344Z,11.80
2023-01-06T04:06:46.128Z,11.80
2023-01-06T04:12:06.920Z,11.90
2023-01-06T04:17:13.749Z,11.90
2023-01-06T04:22:16.490Z,11.80
2023-01-06T04:27:18.641Z,11.80
2023-01-06T04:32:21.756Z,11.90
2023-01-06T04:37:24.642Z,11.80
2023-01-06T04:42:26.721Z,11.90
2023-01-06T04:47:28.786Z,11.80
2023-01-06T04:52:30.859Z,11.90
2023-01-06T04:57:33.051Z,11.90
2023-01-06T05:02:35.121Z,11.90
2023-01-06T05:07:37.255Z,11.90
2023-01-06T05:12:39.318Z,11.80
2023-01-06T05:17:41.406Z,11.80
2023-01-06T05:22:43.487Z,11.80
2023-01-06T05:27:45.576Z,11.80
2023-01-06T05:32:47.642Z,11.80
2023-01-06T05:37:49.663Z,11.80
2023-01-06T05:42:55.697Z,11.90
2023-01-06T05:47:58.156Z,11.80
2023-01-06T05:53:00.173Z,11.80
2023-01-06T05:58:02.476Z,11.80
2023-01-06T06:03:04.532Z,11.80
2023-01-06T06:08:07.898Z,11.80
2023-01-06T06:13:10.579Z,11.80
2023-01-06T06:18:12.599Z,11.80
2023-01-06T06:23:14.616Z,11.80
2023-01-06T06:28:16.738Z,11.80
2023-01-06T06:33:18.758Z,11.70
2023-01-06T06:38:20.798Z,11.80
2023-01-06T06:43:23.238Z,11.70
2023-01-06T06:48:25.542Z,11.70
2023-01-06T06:53:27.970Z,11.80
2023-01-06T06:58:30.100Z,11.80
2023-01-06T07:03:32.297Z,11.80
2023-01-06T07:08:34.662Z,11.70
2023-01-06T07:13:36.676Z,11.70
2023-01-06T07:18:39.422Z,11.70
2023-01-06T07:23:41.451Z,11.80
2023-01-06T07:28:43.519Z,11.70
2023-01-06T07:33:45.606Z,11.80
2023-01-06T07:38:47.655Z,11.80
2023-01-06T07:43:49.705Z,11.80
2023-01-06T07:48:51.729Z,11.80
2023-01-06T07:53:53.707Z,11.80
2023-01-06T07:58:55.688Z,11.80
2023-01-06T08:03:57.722Z,11.80
2023-01-06T08:08:59.761Z,11.80
2023-01-06T08:14:01.775Z,11.80
2023-01-06T08:19:04.965Z,11.80
2023-01-06T08:24:07.491Z,11.80
2023-01-06T08:29:09.605Z,11.80
2023-01-06T08:34:14.508Z,11.80
2023-01-06T08:39:16.735Z,11.80
2023-01-06T08:44:19.039Z,11.80
2023-01-06T08:49:21.075Z,11.90
2023-01-06T08:54:23.135Z,11.90
2023-01-06T08:59:25.172Z,11.90
2023-01-06T09:04:27.458Z,11.90
2023-01-06T09:09:29.522Z,11.90
2023-01-06T09:14:31.597Z,11.90
2023-01-06T09:19:33.586Z,11.90
2023-01-06T09:24:35.682Z,11.90
2023-01-06T09:29:37.741Z,11.90
2023-01-06T09:34:39.811Z,11.90
2023-01-06T09:39:41.865Z,11.90
2023-01-06T09:45:01.623Z,11.90
2023-01-06T09:50:14.207Z,11.90
2023-01-06T09:55:37.369Z,12.00
2023-01-06T10:00:46.472Z,12.00
2023-01-06T10:06:26.007Z,12.00
2023-01-06T10:11:36.858Z,12.10
2023-01-06T10:17:18.406Z,12.10
2023-01-06T10:22:33.909Z,12.30
2023-01-06T10:27:37.620Z,12.50
2023-01-06T10:32:42.079Z,12.60
2023-01-06T10:37:47.491Z,12.60
2023-01-06T10:43:03.679Z,12.70
2023-01-06T10:48:11.001Z,12.60
2023-01-06T10:53:14.976Z,12.60
2023-01-06T10:58:22.847Z,12.60
2023-01-06T11:03:33.316Z,12.60
2023-01-06T11:08:37.766Z,12.60
2023-01-06T11:13:41.663Z,12.70
2023-01-06T11:18:43.947Z,12.70
2023-01-06T11:23:47.915Z,12.80
2023-01-06T11:28:54.511Z,12.70
2023-01-06T11:34:00.502Z,12.70
2023-01-06T11:39:12.860Z,12.70
2023-01-06T11:44:40.182Z,12.80
2023-01-06T11:49:53.642Z,12.80
2023-01-06T11:55:09.004Z,12.80
2023-01-06T12:00:11.342Z,12.90
2023-01-06T12:05:27.525Z,12.90
2023-01-06T12:10:32.653Z,12.90
2023-01-06T12:15:36.775Z,13.10
2023-01-06T12:20:44.110Z,13.20
2023-01-06T12:25:49.235Z,13.30
2023-01-06T12:31:17.166Z,13.50
2023-01-06T12:36:32.312Z,13.60
2023-01-06T12:41:47.455Z,13.50
2023-01-06T12:47:21.112Z,13.50
2023-01-06T12:52:32.282Z,13.50
2023-01-06T12:57:43.192Z,13.50
2023-01-06T13:02:54.071Z,13.50
2023-01-06T13:08:20.613Z,13.30
2023-01-06T13:13:56.053Z,13.20
2023-01-06T13:19:19.520Z,13.10
2023-01-06T13:24:37.913Z,13.10
2023-01-06T13:29:55.006Z,13.20
2023-01-06T13:35:23.670Z,13.20
2023-01-06T13:40:29.624Z,13.30
2023-01-06T13:45:39.483Z,13.40
2023-01-06T13:50:42.139Z,13.30
2023-01-06T13:55:44.726Z,13.20
2023-01-06T14:01:07.412Z,13.10
2023-01-06T14:06:23.122Z,13.00
2023-01-06T14:11:31.850Z,12.90
2023-01-06T14:16:44.489Z,12.90
2023-01-06T14:21:49.152Z,12.80
2023-01-06T14:26:51.271Z,12.80
2023-01-06T14:31:53.320Z,12.70
2023-01-06T14:36:57.133Z,12.70
2023-01-06T14:42:14.921Z,12.70
2023-01-06T14:47:29.252Z,12.70
2023-01-06T14:52:41.062Z,12.70
2023-01-06T14:57:43.286Z,12.70
2023-01-06T15:02:50.412Z,12.70
2023-01-06T15:08:06.592Z,12.80
2023-01-06T15:13:20.583Z,12.80
2023-01-06T15:18:22.835Z,12.70
2023-01-06T15:23:25.121Z,12.60
2023-01-06T15:28:29.600Z,12.50
2023-01-06T15:33:38.662Z,12.50
2023-01-06T15:38:41.901Z,12.40
2023-01-06T15:43:45.935Z,12.40
2023-01-06T15:48:48.977Z,12.40
2023-01-06T15:53:56.388Z,12.40
2023-01-06T15:58:59.637Z,12.40
2023-01-06T16:04:04.779Z,12.40
2023-01-06T16:09:30.535Z,12.40
2023-01-06T16:14:40.250Z,12.50
2023-01-06T16:20:00.526Z,12.50
2023-01-06T16:25:24.284Z,12.50
2023-01-06T16:30:30.851Z,12.50
2023-01-06T16:35:34.415Z,12.50
2023-01-06T16:40:36.490Z,12.50
2023-01-06T16:45:41.820Z,12.50
2023-01-06T16:50:53.231Z,12.40
2023-01-06T16:55:56.811Z,12.40
2023-01-06T17:01:09.121Z,12.40
2023-01-06T17:06:22.301Z,12.50
2023-01-06T17:11:26.841Z,12.50
2023-01-06T17:16:34.650Z,12.50
2023-01-06T17:21:39.693Z,12.50
2023-01-06T17:26:48.718Z,12.50
2023-01-06T17:31:54.951Z,12.50
2023-01-06T17:36:58.298Z,12.50
2023-01-06T17:42:12.199Z,12.60
2023-01-06T17:47:17.242Z,12.50
2023-01-06T17:52:22.769Z,12.50
2023-01-06T17:57:27.028Z,12.50
2023-01-06T18:02:42.473Z,12.50
2023-01-06T18:07:44.620Z,12.50
2023-01-06T18:12:47.146Z,12.50
2023-01-06T18:17:49.198Z,12.50
2023-01-06T18:22:51.211Z,12.50
2023-01-06T18:27:53.257Z,12.50
2023-01-06T18:32:55.545Z,12.50
2023-01-06T18:38:02.505Z,12.50
2023-01-06T18:43:23.211Z,12.50
2023-01-06T18:48:32.025Z,12.50
2023-01-06T18:53:43.294Z,12.50
2023-01-06T18:58:52.465Z,12.60
2023-01-06T19:04:09.571Z,12.60
2023-01-06T19:09:43.824Z,12.60
2023-01-06T19:14:49.884Z,12.50
2023-01-06T19:19:53.459Z,12.60
2023-01-06T19:25:23.652Z,12.50
2023-01-06T19:30:53.611Z,12.50
2023-01-06T19:36:04.842Z,12.50
2023-01-06T19:41:18.867Z,12.60
2023-01-06T19:46:29.961Z,12.50
2023-01-06T19:51:35.367Z,12.50
2023-01-06T19:56:43.965Z,12.50
2023-01-06T20:01:46.960Z,12.50
2023-01-06T20:06:49.715Z,12.50
2023-01-06T20:11:52.433Z,12.50
2023-01-06T20:16:54.569Z,12.50
2023-01-06T20:21:57.359Z,12.50
2023-01-06T20:26:59.375Z,12.50
2023-01-06T20:32:01.547Z,12.50
2023-01-06T20:37:03.765Z,12.40
2023-01-06T20:42:06.014Z,12.40
2023-01-06T20:47:08.277Z,12.40
2023-01-06T20:52:10.392Z,12.40
2023-01-06T20:57:12.460Z,12.30
2023-01-06T21:02:14.741Z,12.30
2023-01-06T21:07:16.980Z,12.30
2023-01-06T21:12:19.217Z,12.30
2023-01-06T21:17:21.381Z,12.40
2023-01-06T21:22:23.720Z,12.50
2023-01-06T21:27:26.021Z,12.40
2023-01-06T21:32:28.321Z,12.40
2023-01-06T21:37:30.367Z,12.40
2023-01-06T21:42:50.884Z,12.40
2023-01-06T21:47:53.043Z,12.40
2023-01-06T21:52:55.896Z,12.40
2023-01-06T21:57:58.404Z,12.40
2023-01-06T22:03:00.555Z,12.40
2023-01-06T22:08:03.100Z,12.50
2023-01-06T22:13:07.211Z,12.50
2023-01-06T22:18:10.607Z,12.50
2023-01-06T22:23:19.204Z,12.50
2023-01-06T22:28:21.431Z,12.60
2023-01-06T22:33:23.920Z,12.50
2023-01-06T22:38:26.307Z,12.50
2023-01-06T22:43:28.496Z,12.40
2023-01-06T22:48:30.669Z,12.40
2023-01-06T22:53:33.531Z,12.40
2023-01-06T22:58:38.437Z,12.40
2023-01-06T23:03:40.482Z,12.30
2023-01-06T23:08:58.495Z,12.40
2023-01-06T23:14:01.516Z,12.40
2023-01-06T23:19:04.021Z,12.40
2023-01-06T23:24:07.820Z,12.40
2023-01-06T23:29:10.794Z,12.30
2023-01-06T23:34:15.542Z,12.30
2023-01-06T23:39:17.640Z,12.30
2023-01-06T23:44:19.912Z,12.40
2023-01-06T23:49:21.979Z,12.40
2023-01-06T23:54:24.109Z,12.40
2023-01-06T23:59:26.188Z,12.30
